New Orleans, Louisiana
Current Conditions -  °F | °C
As of 1:55 PM on Sunday 23 Nov 2014 (Local Time) from KVSH Reporting Station
Few Clouds Few Clouds  
Wind Chill: 73°   Ceiling: Unl
Heat Index: 73°   Visibility: 10mi
Dew Point: 59°   Wind: 10mph
Humidity: 61%   Direction: 220°SW
Pressure: 29.66"   Gusts: 26mph
Location:  29.95°N, 90.08°W
Report Text: KVSH 231955Z AUTO 22009G23KT 10SM FEW039 23/15 A2966 RMK AO1
Loading
Personal Weather Stations






























Interactive Weather Map New forecast layout! Learn more

10-Day Weather Forecast

Advertisements
Track Severe Weather on mobile